sensor_id;sensor_type;location;lat;lon;timestamp;pressure;altitude;pressure_sealevel;temperature;humidity
44685;BME280;76140;45.696;8.652;2024-03-25T00:00:20;97771.85;;;4.33;17.60
44685;BME280;76140;45.696;8.652;2024-03-25T00:02:45;97777.45;;;4.09;18.30
44685;BME280;76140;45.696;8.652;2024-03-25T00:05:11;97778.44;;;4.82;18.02
44685;BME280;76140;45.696;8.652;2024-03-25T00:07:36;97780.65;;;4.80;18.62
44685;BME280;76140;45.696;8.652;2024-03-25T00:10:01;97780.26;;;4.77;17.88
44685;BME280;76140;45.696;8.652;2024-03-25T00:12:27;97783.85;;;3.58;17.93
44685;BME280;76140;45.696;8.652;2024-03-25T00:14:52;97781.57;;;4.29;17.58
44685;BME280;76140;45.696;8.652;2024-03-25T00:17:17;97782.67;;;4.51;17.44
44685;BME280;76140;45.696;8.652;2024-03-25T00:19:43;97781.14;;;4.72;17.69
44685;BME280;76140;45.696;8.652;2024-03-25T00:22:08;97779.55;;;4.58;17.52
44685;BME280;76140;45.696;8.652;2024-03-25T00:24:33;97782.41;;;4.88;17.09
44685;BME280;76140;45.696;8.652;2024-03-25T00:26:58;97782.85;;;4.54;17.55
44685;BME280;76140;45.696;8.652;2024-03-25T00:29:24;97782.87;;;4.45;17.77
44685;BME280;76140;45.696;8.652;2024-03-25T00:31:49;97779.24;;;4.41;17.58
44685;BME280;76140;45.696;8.652;2024-03-25T00:34:15;97778.24;;;4.44;17.63
44685;BME280;76140;45.696;8.652;2024-03-25T00:36:40;97776.95;;;4.29;17.66
44685;BME280;76140;45.696;8.652;2024-03-25T00:39:05;97776.00;;;4.62;17.31
44685;BME280;76140;45.696;8.652;2024-03-25T00:41:30;97774.83;;;4.38;17.53
44685;BME280;76140;45.696;8.652;2024-03-25T00:43:56;97770.90;;;4.76;17.49
44685;BME280;76140;45.696;8.652;2024-03-25T00:46:21;97768.88;;;4.56;17.37
44685;BME280;76140;45.696;8.652;2024-03-25T00:48:46;97769.91;;;4.84;17.58
44685;BME280;76140;45.696;8.652;2024-03-25T00:51:11;97769.83;;;4.64;17.41
44685;BME280;76140;45.696;8.652;2024-03-25T00:53:37;97768.23;;;4.14;18.21
44685;BME280;76140;45.696;8.652;2024-03-25T00:56:03;97766.20;;;4.60;17.92
44685;BME280;76140;45.696;8.652;2024-03-25T00:58:27;97762.72;;;4.43;17.91
44685;BME280;76140;45.696;8.652;2024-03-25T01:00:53;97758.75;;;4.21;17.67
44685;BME280;76140;45.696;8.652;2024-03-25T01:03:18;97757.82;;;4.15;18.26
44685;BME280;76140;45.696;8.652;2024-03-25T01:05:43;97757.33;;;4.48;18.24
44685;BME280;76140;45.696;8.652;2024-03-25T01:08:09;97756.85;;;4.10;18.02
44685;BME280;76140;45.696;8.652;2024-03-25T01:10:34;97760.16;;;4.05;18.49
44685;BME280;76140;45.696;8.652;2024-03-25T01:12:59;97762.20;;;4.08;18.11
44685;BME280;76140;45.696;8.652;2024-03-25T01:15:25;97762.22;;;3.89;18.42
44685;BME280;76140;45.696;8.652;2024-03-25T01:17:50;97761.25;;;3.68;19.13
44685;BME280;76140;45.696;8.652;2024-03-25T01:20:15;97761.56;;;3.86;18.32
44685;BME280;76140;45.696;8.652;2024-03-25T01:22:41;97759.47;;;2.93;18.30
44685;BME280;76140;45.696;8.652;2024-03-25T01:25:07;97759.81;;;3.47;19.17
44685;BME280;76140;45.696;8.652;2024-03-25T01:27:31;97759.90;;;4.09;18.42
44685;BME280;76140;45.696;8.652;2024-03-25T01:29:57;97760.23;;;3.90;18.68
44685;BME280;76140;45.696;8.652;2024-03-25T01:32:22;97761.93;;;3.26;18.93
44685;BME280;76140;45.696;8.652;2024-03-25T01:34:48;97762.31;;;3.28;19.66
44685;BME280;76140;45.696;8.652;2024-03-25T01:37:13;97767.65;;;3.05;20.09
44685;BME280;76140;45.696;8.652;2024-03-25T01:39:38;97767.11;;;2.72;20.22
44685;BME280;76140;45.696;8.652;2024-03-25T01:42:04;97763.97;;;3.47;19.68
44685;BME280;76140;45.696;8.652;2024-03-25T01:44:29;97762.77;;;3.76;19.86
44685;BME280;76140;45.696;8.652;2024-03-25T01:46:54;97762.16;;;3.58;20.12
44685;BME280;76140;45.696;8.652;2024-03-25T01:49:20;97762.02;;;3.26;20.39
44685;BME280;76140;45.696;8.652;2024-03-25T01:51:45;97761.85;;;3.29;20.67
44685;BME280;76140;45.696;8.652;2024-03-25T01:54:11;97761.84;;;3.49;20.14
44685;BME280;76140;45.696;8.652;2024-03-25T01:56:36;97762.37;;;3.02;20.15
44685;BME280;76140;45.696;8.652;2024-03-25T01:59:01;97761.95;;;2.96;20.58
44685;BME280;76140;45.696;8.652;2024-03-25T02:01:27;97763.02;;;2.97;20.57
44685;BME280;76140;45.696;8.652;2024-03-25T02:03:53;97759.65;;;2.79;20.91
44685;BME280;76140;45.696;8.652;2024-03-25T02:06:17;97757.64;;;3.08;20.75
44685;BME280;76140;45.696;8.652;2024-03-25T02:08:43;97757.15;;;2.92;21.15
44685;BME280;76140;45.696;8.652;2024-03-25T02:11:08;97752.68;;;2.97;21.01
44685;BME280;76140;45.696;8.652;2024-03-25T02:13:35;97750.65;;;2.87;21.80
44685;BME280;76140;45.696;8.652;2024-03-25T02:15:58;97749.37;;;2.85;21.47
44685;BME280;76140;45.696;8.652;2024-03-25T02:18:24;97741.00;;;2.70;21.50
44685;BME280;76140;45.696;8.652;2024-03-25T02:20:49;97737.72;;;2.74;21.66
44685;BME280;76140;45.696;8.652;2024-03-25T02:23:15;97739.31;;;2.68;21.49
44685;BME280;76140;45.696;8.652;2024-03-25T02:25:42;97738.87;;;2.44;22.31
44685;BME280;76140;45.696;8.652;2024-03-25T02:28:05;97734.43;;;3.08;21.46
44685;BME280;76140;45.696;8.652;2024-03-25T02:30:31;97734.92;;;2.87;21.44
44685;BME280;76140;45.696;8.652;2024-03-25T02:32:56;97734.12;;;2.91;21.69
44685;BME280;76140;45.696;8.652;2024-03-25T02:35:22;97734.33;;;2.26;22.81
44685;BME280;76140;45.696;8.652;2024-03-25T02:37:47;97732.95;;;2.50;22.27
44685;BME280;76140;45.696;8.652;2024-03-25T02:40:12;97733.11;;;2.41;21.60
44685;BME280;76140;45.696;8.652;2024-03-25T02:42:38;97729.15;;;2.56;21.69
44685;BME280;76140;45.696;8.652;2024-03-25T02:45:03;97737.14;;;2.00;22.28
44685;BME280;76140;45.696;8.652;2024-03-25T02:47:28;97732.92;;;2.59;22.39
44685;BME280;76140;45.696;8.652;2024-03-25T02:49:53;97730.87;;;2.44;22.21
44685;BME280;76140;45.696;8.652;2024-03-25T02:52:19;97733.49;;;2.17;22.22
44685;BME280;76140;45.696;8.652;2024-03-25T02:54:44;97731.53;;;2.69;22.20
44685;BME280;76140;45.696;8.652;2024-03-25T02:57:09;97735.43;;;2.46;22.25
44685;BME280;76140;45.696;8.652;2024-03-25T02:59:35;97736.34;;;2.74;21.74
44685;BME280;76140;45.696;8.652;2024-03-25T03:02:00;97736.98;;;2.64;21.69
44685;BME280;76140;45.696;8.652;2024-03-25T03:04:26;97739.13;;;2.84;21.40
44685;BME280;76140;45.696;8.652;2024-03-25T03:06:51;97742.06;;;2.63;21.92
44685;BME280;76140;45.696;8.652;2024-03-25T03:09:16;97741.15;;;2.71;21.92
44685;BME280;76140;45.696;8.652;2024-03-25T03:11:42;97738.45;;;2.86;22.19
44685;BME280;76140;45.696;8.652;2024-03-25T03:14:07;97738.53;;;2.65;21.98
44685;BME280;76140;45.696;8.652;2024-03-25T03:16:32;97742.15;;;2.38;22.52
44685;BME280;76140;45.696;8.652;2024-03-25T03:18:58;97742.59;;;2.63;21.93
44685;BME280;76140;45.696;8.652;2024-03-25T03:21:23;97740.60;;;2.85;22.16
44685;BME280;76140;45.696;8.652;2024-03-25T03:23:48;97746.33;;;1.16;23.02
44685;BME280;76140;45.696;8.652;2024-03-25T03:26:14;97745.82;;;1.85;23.29
44685;BME280;76140;45.696;8.652;2024-03-25T03:28:39;97745.86;;;2.00;23.68
44685;BME280;76140;45.696;8.652;2024-03-25T03:31:04;97744.54;;;1.87;23.70
44685;BME280;76140;45.696;8.652;2024-03-25T03:33:30;97743.42;;;2.41;23.62
44685;BME280;76140;45.696;8.652;2024-03-25T03:35:55;97742.69;;;1.83;23.37
44685;BME280;76140;45.696;8.652;2024-03-25T03:38:21;97739.31;;;2.62;23.50
44685;BME280;76140;45.696;8.652;2024-03-25T03:40:56;97739.41;;;2.21;23.79
44685;BME280;76140;45.696;8.652;2024-03-25T03:43:11;97734.71;;;2.69;23.75
44685;BME280;76140;45.696;8.652;2024-03-25T03:45:37;97737.17;;;2.72;23.98
44685;BME280;76140;45.696;8.652;2024-03-25T03:48:02;97738.39;;;2.60;23.86
44685;BME280;76140;45.696;8.652;2024-03-25T03:50:28;97737.19;;;2.57;23.88
44685;BME280;76140;45.696;8.652;2024-03-25T03:52:53;97737.10;;;2.81;24.01
44685;BME280;76140;45.696;8.652;2024-03-25T03:55:18;97736.95;;;2.71;23.63
44685;BME280;76140;45.696;8.652;2024-03-25T03:57:44;97736.94;;;2.09;24.54
44685;BME280;76140;45.696;8.652;2024-03-25T04:00:10;97740.91;;;2.49;23.58
44685;BME280;76140;45.696;8.652;2024-03-25T04:02:34;97740.61;;;2.21;23.14
44685;BME280;76140;45.696;8.652;2024-03-25T04:05:00;97742.11;;;2.10;24.21
44685;BME280;76140;45.696;8.652;2024-03-25T04:07:25;97741.97;;;2.26;23.76
44685;BME280;76140;45.696;8.652;2024-03-25T04:09:50;97744.30;;;2.82;23.21
44685;BME280;76140;45.696;8.652;2024-03-25T04:12:16;97746.04;;;2.77;22.98
44685;BME280;76140;45.696;8.652;2024-03-25T04:14:41;97750.96;;;2.77;22.89
44685;BME280;76140;45.696;8.652;2024-03-25T04:17:07;97750.92;;;2.23;22.82
44685;BME280;76140;45.696;8.652;2024-03-25T04:19:32;97751.07;;;2.39;23.00
44685;BME280;76140;45.696;8.652;2024-03-25T04:21:57;97752.56;;;2.52;23.58
44685;BME280;76140;45.696;8.652;2024-03-25T04:24:22;97758.40;;;2.52;23.03
44685;BME280;76140;45.696;8.652;2024-03-25T04:26:48;97757.65;;;2.17;23.91
44685;BME280;76140;45.696;8.652;2024-03-25T04:29:15;97759.65;;;2.02;23.76
44685;BME280;76140;45.696;8.652;2024-03-25T04:31:40;97759.63;;;2.09;22.83
44685;BME280;76140;45.696;8.652;2024-03-25T04:34:06;97757.78;;;2.25;23.22
44685;BME280;76140;45.696;8.652;2024-03-25T04:36:31;97754.50;;;2.17;23.25
44685;BME280;76140;45.696;8.652;2024-03-25T04:38:57;97754.64;;;2.30;22.63
44685;BME280;76140;45.696;8.652;2024-03-25T04:41:22;97757.26;;;2.24;22.55
44685;BME280;76140;45.696;8.652;2024-03-25T04:43:48;97754.29;;;2.25;22.73
44685;BME280;76140;45.696;8.652;2024-03-25T04:46:13;97757.33;;;2.51;22.82
44685;BME280;76140;45.696;8.652;2024-03-25T04:48:39;97754.90;;;2.12;22.81
44685;BME280;76140;45.696;8.652;2024-03-25T04:51:05;97752.72;;;1.96;23.48
44685;BME280;76140;45.696;8.652;2024-03-25T04:53:31;97754.41;;;2.22;22.90
44685;BME280;76140;45.696;8.652;2024-03-25T04:55:55;97754.07;;;1.90;23.41
44685;BME280;76140;45.696;8.652;2024-03-25T04:58:21;97753.71;;;1.67;23.26
44685;BME280;76140;45.696;8.652;2024-03-25T05:00:46;97754.33;;;1.65;23.49
44685;BME280;76140;45.696;8.652;2024-03-25T05:03:12;97755.66;;;1.82;23.91
44685;BME280;76140;45.696;8.652;2024-03-25T05:05:37;97756.62;;;2.13;23.68
44685;BME280;76140;45.696;8.652;2024-03-25T05:08:03;97758.65;;;1.96;24.06
44685;BME280;76140;45.696;8.652;2024-03-25T05:10:28;97762.72;;;2.14;23.67
44685;BME280;76140;45.696;8.652;2024-03-25T05:12:54;97764.75;;;2.11;24.23
44685;BME280;76140;45.696;8.652;2024-03-25T05:15:19;97762.30;;;1.92;23.78
44685;BME280;76140;45.696;8.652;2024-03-25T05:17:45;97766.78;;;1.94;24.34
44685;BME280;76140;45.696;8.652;2024-03-25T05:20:11;97767.81;;;2.55;23.68
44685;BME280;76140;45.696;8.652;2024-03-25T05:22:36;97771.37;;;2.49;23.73
44685;BME280;76140;45.696;8.652;2024-03-25T05:25:02;97774.68;;;1.82;24.60
44685;BME280;76140;45.696;8.652;2024-03-25T05:27:27;97774.85;;;2.41;24.40
44685;BME280;76140;45.696;8.652;2024-03-25T05:29:52;97777.60;;;2.15;24.49
44685;BME280;76140;45.696;8.652;2024-03-25T05:32:18;97781.91;;;2.10;24.51
44685;BME280;76140;45.696;8.652;2024-03-25T05:34:43;97787.50;;;2.05;24.55
44685;BME280;76140;45.696;8.652;2024-03-25T05:37:09;97793.90;;;2.14;24.18
44685;BME280;76140;45.696;8.652;2024-03-25T05:39:34;97795.87;;;2.43;23.58
44685;BME280;76140;45.696;8.652;2024-03-25T05:41:59;97794.22;;;2.69;23.24
44685;BME280;76140;45.696;8.652;2024-03-25T05:44:25;97793.36;;;2.59;23.58
44685;BME280;76140;45.696;8.652;2024-03-25T05:46:50;97789.80;;;2.24;23.59
44685;BME280;76140;45.696;8.652;2024-03-25T05:49:16;97788.88;;;2.59;23.19
44685;BME280;76140;45.696;8.652;2024-03-25T05:51:41;97786.21;;;2.99;23.13
44685;BME280;76140;45.696;8.652;2024-03-25T05:54:07;97787.17;;;2.92;23.29
44685;BME280;76140;45.696;8.652;2024-03-25T05:56:32;97792.36;;;2.94;22.98
44685;BME280;76140;45.696;8.652;2024-03-25T05:58:58;97793.28;;;3.10;22.58
44685;BME280;76140;45.696;8.652;2024-03-25T06:01:23;97795.32;;;3.17;22.40
44685;BME280;76140;45.696;8.652;2024-03-25T06:03:48;97797.21;;;3.22;21.98
44685;BME280;76140;45.696;8.652;2024-03-25T06:06:14;97797.23;;;3.50;22.03
44685;BME280;76140;45.696;8.652;2024-03-25T06:08:39;97795.06;;;3.35;22.66
44685;BME280;76140;45.696;8.652;2024-03-25T06:11:04;97794.72;;;3.81;22.24
44685;BME280;76140;45.696;8.652;2024-03-25T06:13:30;97796.80;;;3.65;22.52
44685;BME280;76140;45.696;8.652;2024-03-25T06:15:55;97799.57;;;3.36;22.53
44685;BME280;76140;45.696;8.652;2024-03-25T06:18:20;97802.23;;;3.43;22.42
44685;BME280;76140;45.696;8.652;2024-03-25T06:20:46;97801.15;;;2.91;22.54
44685;BME280;76140;45.696;8.652;2024-03-25T06:23:11;97800.31;;;3.07;22.71
44685;BME280;76140;45.696;8.652;2024-03-25T06:25:36;97800.34;;;3.32;22.76
44685;BME280;76140;45.696;8.652;2024-03-25T06:28:02;97798.37;;;3.80;22.56
44685;BME280;76140;45.696;8.652;2024-03-25T06:30:27;97798.23;;;4.08;22.20
44685;BME280;76140;45.696;8.652;2024-03-25T06:32:52;97800.36;;;3.98;22.28
44685;BME280;76140;45.696;8.652;2024-03-25T06:35:18;97798.53;;;4.17;22.95
44685;BME280;76140;45.696;8.652;2024-03-25T06:37:43;97799.14;;;4.12;22.40
44685;BME280;76140;45.696;8.652;2024-03-25T06:40:09;97800.77;;;4.52;22.05
44685;BME280;76140;45.696;8.652;2024-03-25T06:42:34;97801.15;;;4.19;22.43
44685;BME280;76140;45.696;8.652;2024-03-25T06:44:59;97803.39;;;3.96;22.47
44685;BME280;76140;45.696;8.652;2024-03-25T06:47:24;97802.04;;;3.92;22.64
44685;BME280;76140;45.696;8.652;2024-03-25T06:49:49;97799.75;;;4.34;22.66
44685;BME280;76140;45.696;8.652;2024-03-25T06:52:15;97805.42;;;4.75;22.28
44685;BME280;76140;45.696;8.652;2024-03-25T06:54:40;97807.38;;;4.40;22.56
44685;BME280;76140;45.696;8.652;2024-03-25T06:57:05;97808.17;;;4.45;22.13
44685;BME280;76140;45.696;8.652;2024-03-25T06:59:31;97810.64;;;4.61;22.37
44685;BME280;76140;45.696;8.652;2024-03-25T07:01:56;97813.89;;;4.34;22.13
44685;BME280;76140;45.696;8.652;2024-03-25T07:04:21;97820.84;;;4.86;22.10
44685;BME280;76140;45.696;8.652;2024-03-25T07:06:47;97824.35;;;6.11;21.29
44685;BME280;76140;45.696;8.652;2024-03-25T07:09:12;97818.47;;;11.47;17.91
44685;BME280;76140;45.696;8.652;2024-03-25T07:11:37;97809.64;;;16.50;14.43
44685;BME280;76140;45.696;8.652;2024-03-25T07:14:02;97804.42;;;20.08;12.22
44685;BME280;76140;45.696;8.652;2024-03-25T07:16:28;97800.33;;;21.82;10.59
44685;BME280;76140;45.696;8.652;2024-03-25T07:18:53;97794.07;;;22.94;9.94
44685;BME280;76140;45.696;8.652;2024-03-25T07:21:18;97794.40;;;23.98;9.43
44685;BME280;76140;45.696;8.652;2024-03-25T07:23:44;97789.85;;;23.77;8.98
44685;BME280;76140;45.696;8.652;2024-03-25T07:26:10;97788.98;;;26.64;8.33
44685;BME280;76140;45.696;8.652;2024-03-25T07:28:36;97784.12;;;26.09;8.03
44685;BME280;76140;45.696;8.652;2024-03-25T07:31:02;97781.58;;;26.27;7.54
44685;BME280;76140;45.696;8.652;2024-03-25T07:33:27;97782.03;;;28.57;7.15
44685;BME280;76140;45.696;8.652;2024-03-25T07:35:53;97785.30;;;28.90;7.01
44685;BME280;76140;45.696;8.652;2024-03-25T07:38:19;97797.57;;;28.40;6.76
44685;BME280;76140;45.696;8.652;2024-03-25T07:40:44;97803.43;;;29.34;6.61
44685;BME280;76140;45.696;8.652;2024-03-25T07:43:10;97812.30;;;29.05;6.69
44685;BME280;76140;45.696;8.652;2024-03-25T07:45:36;97821.76;;;29.26;6.69
44685;BME280;76140;45.696;8.652;2024-03-25T07:48:02;97835.39;;;29.76;6.40
44685;BME280;76140;45.696;8.652;2024-03-25T07:50:27;97796.22;;;29.54;6.37
44685;BME280;76140;45.696;8.652;2024-03-25T07:52:53;97782.43;;;29.98;6.41
44685;BME280;76140;45.696;8.652;2024-03-25T07:55:19;97780.19;;;29.74;6.25
44685;BME280;76140;45.696;8.652;2024-03-25T07:57:44;97777.32;;;28.51;6.17
44685;BME280;76140;45.696;8.652;2024-03-25T08:00:11;97774.97;;;28.22;6.60
44685;BME280;76140;45.696;8.652;2024-03-25T08:02:35;97775.97;;;29.59;6.19
44685;BME280;76140;45.696;8.652;2024-03-25T08:05:01;97779.05;;;30.34;5.95
44685;BME280;76140;45.696;8.652;2024-03-25T08:07:27;97780.31;;;29.26;5.96
44685;BME280;76140;45.696;8.652;2024-03-25T08:09:53;97780.79;;;29.20;6.08
44685;BME280;76140;45.696;8.652;2024-03-25T08:12:18;97780.24;;;29.76;5.98
44685;BME280;76140;45.696;8.652;2024-03-25T08:14:44;97781.18;;;29.91;6.10
44685;BME280;76140;45.696;8.652;2024-03-25T08:17:09;97780.31;;;29.32;6.12
44685;BME280;76140;45.696;8.652;2024-03-25T08:19:35;97779.76;;;28.46;6.32
44685;BME280;76140;45.696;8.652;2024-03-25T08:22:01;97781.32;;;29.67;6.24
44685;BME280;76140;45.696;8.652;2024-03-25T08:24:26;97784.25;;;30.33;5.95
44685;BME280;76140;45.696;8.652;2024-03-25T08:26:52;97781.45;;;30.10;6.11
44685;BME280;76140;45.696;8.652;2024-03-25T08:29:18;97782.44;;;29.45;5.93
44685;BME280;76140;45.696;8.652;2024-03-25T08:31:43;97781.00;;;30.37;5.86
44685;BME280;76140;45.696;8.652;2024-03-25T08:34:09;97779.73;;;29.51;5.70
44685;BME280;76140;45.696;8.652;2024-03-25T08:36:34;97777.92;;;29.99;5.61
44685;BME280;76140;45.696;8.652;2024-03-25T08:39:00;97776.04;;;30.00;5.61
44685;BME280;76140;45.696;8.652;2024-03-25T08:41:26;97773.80;;;29.76;5.57
44685;BME280;76140;45.696;8.652;2024-03-25T08:43:51;97771.04;;;29.44;5.64
44685;BME280;76140;45.696;8.652;2024-03-25T08:46:17;97771.89;;;30.28;5.63
44685;BME280;76140;45.696;8.652;2024-03-25T08:48:43;97770.27;;;29.55;5.52
44685;BME280;76140;45.696;8.652;2024-03-25T08:51:08;97769.78;;;30.54;5.45
44685;BME280;76140;45.696;8.652;2024-03-25T08:53:34;97770.82;;;30.70;5.20
44685;BME280;76140;45.696;8.652;2024-03-25T08:56:00;97766.90;;;29.75;5.20
44685;BME280;76140;45.696;8.652;2024-03-25T08:58:25;97766.07;;;30.05;5.41
44685;BME280;76140;45.696;8.652;2024-03-25T09:00:51;97758.62;;;30.02;5.38
44685;BME280;76140;45.696;8.652;2024-03-25T09:03:16;97750.87;;;29.29;5.69
44685;BME280;76140;45.696;8.652;2024-03-25T09:05:42;97751.23;;;29.80;5.25
44685;BME280;76140;45.696;8.652;2024-03-25T09:08:08;97752.36;;;30.15;5.00
44685;BME280;76140;45.696;8.652;2024-03-25T09:10:33;97752.03;;;30.40;4.96
44685;BME280;76140;45.696;8.652;2024-03-25T09:12:59;97750.10;;;28.86;5.15
44685;BME280;76140;45.696;8.652;2024-03-25T09:15:25;97748.44;;;28.26;4.69
44685;BME280;76140;45.696;8.652;2024-03-25T09:17:50;97749.89;;;24.50;4.76
44685;BME280;76140;45.696;8.652;2024-03-25T09:20:16;97746.63;;;28.37;4.98
44685;BME280;76140;45.696;8.652;2024-03-25T09:22:42;97750.54;;;29.27;4.68
44685;BME280;76140;45.696;8.652;2024-03-25T09:25:07;97746.46;;;29.41;4.46
44685;BME280;76140;45.696;8.652;2024-03-25T09:27:33;97744.04;;;29.83;4.81
44685;BME280;76140;45.696;8.652;2024-03-25T09:29:58;97744.60;;;30.14;4.91
44685;BME280;76140;45.696;8.652;2024-03-25T09:32:24;97738.80;;;31.08;4.88
44685;BME280;76140;45.696;8.652;2024-03-25T09:34:50;97737.46;;;30.98;4.41
44685;BME280;76140;45.696;8.652;2024-03-25T09:37:15;97738.62;;;30.49;3.92
44685;BME280;76140;45.696;8.652;2024-03-25T09:39:41;97735.94;;;28.92;4.17
44685;BME280;76140;45.696;8.652;2024-03-25T09:42:08;97735.80;;;29.53;4.12
44685;BME280;76140;45.696;8.652;2024-03-25T09:44:32;97735.17;;;29.83;4.05
44685;BME280;76140;45.696;8.652;2024-03-25T09:46:58;97734.15;;;29.12;4.75
44685;BME280;76140;45.696;8.652;2024-03-25T09:49:25;97736.61;;;28.13;4.78
44685;BME280;76140;45.696;8.652;2024-03-25T09:51:49;97733.05;;;28.86;4.71
44685;BME280;76140;45.696;8.652;2024-03-25T09:54:15;97730.61;;;30.40;4.72
44685;BME280;76140;45.696;8.652;2024-03-25T09:56:42;97730.48;;;29.95;4.55
44685;BME280;76140;45.696;8.652;2024-03-25T09:59:07;97732.44;;;30.14;4.54
44685;BME280;76140;45.696;8.652;2024-03-25T10:01:32;97729.62;;;30.20;4.35
44685;BME280;76140;45.696;8.652;2024-03-25T10:03:58;97725.56;;;29.57;4.97
44685;BME280;76140;45.696;8.652;2024-03-25T10:06:23;97728.19;;;28.85;5.32
44685;BME280;76140;45.696;8.652;2024-03-25T10:08:53;97730.47;;;28.02;5.39
44685;BME280;76140;45.696;8.652;2024-03-25T10:11:15;97725.89;;;28.74;4.46
44685;BME280;76140;45.696;8.652;2024-03-25T10:13:41;97721.63;;;27.79;4.56
44685;BME280;76140;45.696;8.652;2024-03-25T10:16:07;97719.78;;;26.94;4.53
44685;BME280;76140;45.696;8.652;2024-03-25T10:18:32;97714.70;;;27.49;4.39
44685;BME280;76140;45.696;8.652;2024-03-25T10:20:58;97714.73;;;28.23;5.27
44685;BME280;76140;45.696;8.652;2024-03-25T10:23:23;97716.48;;;25.84;5.30
44685;BME280;76140;45.696;8.652;2024-03-25T10:25:51;97715.59;;;24.44;6.94
44685;BME280;76140;45.696;8.652;2024-03-25T10:28:15;97716.36;;;26.22;6.07
44685;BME280;76140;45.696;8.652;2024-03-25T10:30:41;97712.70;;;23.42;5.63
44685;BME280;76140;45.696;8.652;2024-03-25T10:33:07;97708.04;;;22.97;6.12
44685;BME280;76140;45.696;8.652;2024-03-25T10:35:33;97703.99;;;24.56;5.89
44685;BME280;76140;45.696;8.652;2024-03-25T10:38:00;97705.41;;;23.63;5.99
44685;BME280;76140;45.696;8.652;2024-03-25T10:40:27;97697.72;;;24.00;6.84
44685;BME280;76140;45.696;8.652;2024-03-25T10:42:49;97693.30;;;23.76;6.79
44685;BME280;76140;45.696;8.652;2024-03-25T10:45:15;97690.27;;;24.34;6.47
44685;BME280;76140;45.696;8.652;2024-03-25T10:47:41;97688.38;;;23.22;7.70
44685;BME280;76140;45.696;8.652;2024-03-25T10:50:09;97684.85;;;23.15;6.48
44685;BME280;76140;45.696;8.652;2024-03-25T10:52:32;97692.46;;;21.63;6.74
44685;BME280;76140;45.696;8.652;2024-03-25T10:54:58;97696.14;;;22.28;7.56
44685;BME280;76140;45.696;8.652;2024-03-25T10:57:24;97693.56;;;22.54;7.33
44685;BME280;76140;45.696;8.652;2024-03-25T10:59:49;97687.75;;;21.57;7.18
44685;BME280;76140;45.696;8.652;2024-03-25T11:02:16;97677.76;;;22.70;7.25
44685;BME280;76140;45.696;8.652;2024-03-25T11:04:41;97674.32;;;22.98;6.85
44685;BME280;76140;45.696;8.652;2024-03-25T11:07:07;97676.14;;;21.39;6.88
44685;BME280;76140;45.696;8.652;2024-03-25T11:09:32;97666.40;;;20.29;7.30
44685;BME280;76140;45.696;8.652;2024-03-25T11:11:58;97667.15;;;21.10;6.70
44685;BME280;76140;45.696;8.652;2024-03-25T11:14:25;97662.40;;;21.87;7.21
44685;BME280;76140;45.696;8.652;2024-03-25T11:16:52;97661.22;;;19.83;7.05
44685;BME280;76140;45.696;8.652;2024-03-25T11:19:17;97662.00;;;20.35;7.77
44685;BME280;76140;45.696;8.652;2024-03-25T11:21:41;97657.89;;;20.54;7.06
44685;BME280;76140;45.696;8.652;2024-03-25T11:24:07;97656.59;;;18.90;7.44
44685;BME280;76140;45.696;8.652;2024-03-25T11:26:32;97656.62;;;20.10;8.78
44685;BME280;76140;45.696;8.652;2024-03-25T11:28:58;97654.10;;;19.12;7.97
44685;BME280;76140;45.696;8.652;2024-03-25T11:31:26;97646.82;;;17.84;7.96
44685;BME280;76140;45.696;8.652;2024-03-25T11:33:50;97643.78;;;18.42;8.27
44685;BME280;76140;45.696;8.652;2024-03-25T11:36:16;97636.68;;;17.52;8.26
44685;BME280;76140;45.696;8.652;2024-03-25T11:38:41;97632.00;;;19.08;7.93
44685;BME280;76140;45.696;8.652;2024-03-25T11:41:07;97632.94;;;17.83;8.31
44685;BME280;76140;45.696;8.652;2024-03-25T11:43:33;97631.37;;;17.24;9.63
44685;BME280;76140;45.696;8.652;2024-03-25T11:45:59;97631.29;;;18.56;9.45
44685;BME280;76140;45.696;8.652;2024-03-25T11:48:25;97630.30;;;18.37;9.63
44685;BME280;76140;45.696;8.652;2024-03-25T11:50:50;97630.42;;;17.72;8.90
44685;BME280;76140;45.696;8.652;2024-03-25T11:53:17;97638.65;;;16.74;9.57
44685;BME280;76140;45.696;8.652;2024-03-25T11:55:46;97632.89;;;15.70;10.64
44685;BME280;76140;45.696;8.652;2024-03-25T11:58:08;97626.44;;;17.60;9.38
44685;BME280;76140;45.696;8.652;2024-03-25T12:00:33;97618.78;;;17.53;8.65
44685;BME280;76140;45.696;8.652;2024-03-25T12:02:58;97618.24;;;17.62;8.83
44685;BME280;76140;45.696;8.652;2024-03-25T12:05:23;97609.58;;;17.61;8.78
44685;BME280;76140;45.696;8.652;2024-03-25T12:07:48;97621.90;;;16.37;8.90
44685;BME280;76140;45.696;8.652;2024-03-25T12:10:13;97618.71;;;12.05;9.61
44685;BME280;76140;45.696;8.652;2024-03-25T12:12:38;97618.84;;;12.64;9.58
44685;BME280;76140;45.696;8.652;2024-03-25T12:15:04;97619.58;;;13.12;10.48
44685;BME280;76140;45.696;8.652;2024-03-25T12:17:28;97619.08;;;13.56;10.48
44685;BME280;76140;45.696;8.652;2024-03-25T12:20:03;97617.21;;;14.42;10.74
44685;BME280;76140;45.696;8.652;2024-03-25T12:22:19;97614.24;;;12.59;10.30
44685;BME280;76140;45.696;8.652;2024-03-25T12:24:48;97612.84;;;12.96;10.71
44685;BME280;76140;45.696;8.652;2024-03-25T12:27:09;97624.26;;;11.09;10.44
44685;BME280;76140;45.696;8.652;2024-03-25T12:29:34;97619.43;;;11.22;10.45
44685;BME280;76140;45.696;8.652;2024-03-25T12:32:00;97609.76;;;11.97;10.86
44685;BME280;76140;45.696;8.652;2024-03-25T12:34:25;97606.80;;;13.05;10.52
44685;BME280;76140;45.696;8.652;2024-03-25T12:36:49;97606.11;;;14.47;10.32
44685;BME280;76140;45.696;8.652;2024-03-25T12:39:18;97602.28;;;15.75;10.07
44685;BME280;76140;45.696;8.652;2024-03-25T12:41:39;97601.49;;;15.15;10.02
44685;BME280;76140;45.696;8.652;2024-03-25T12:44:12;97599.30;;;15.74;10.23
44685;BME280;76140;45.696;8.652;2024-03-25T12:46:32;97589.64;;;16.20;9.52
44685;BME280;76140;45.696;8.652;2024-03-25T12:48:54;97585.06;;;16.63;9.39
44685;BME280;76140;45.696;8.652;2024-03-25T12:51:30;97579.43;;;15.89;9.54
44685;BME280;76140;45.696;8.652;2024-03-25T12:53:45;97582.57;;;15.99;9.78
44685;BME280;76140;45.696;8.652;2024-03-25T12:56:09;97582.72;;;14.86;10.43
44685;BME280;76140;45.696;8.652;2024-03-25T12:58:36;97578.61;;;14.83;10.73